sensor_id;sensor_type;location;lat;lon;timestamp;P1;P2;P0
44871;PMS7003;30602;51.060;17.226;2023-04-22T00:04:41;43;37;25
44871;PMS7003;30602;51.060;17.226;2023-04-22T00:08:20;35;33;22
44871;PMS7003;30602;51.060;17.226;2023-04-22T00:12:19;38;35;23
44871;PMS7003;30602;51.060;17.226;2023-04-22T00:15:49;44;37;24
44871;PMS7003;30602;51.060;17.226;2023-04-22T00:19:15;36;34;23
44871;PMS7003;30602;51.060;17.226;2023-04-22T00:23:01;39;34;22
44871;PMS7003;30602;51.060;17.226;2023-04-22T00:27:06;41;36;22
44871;PMS7003;30602;51.060;17.226;2023-04-22T00:31:09;51;42;26
44871;PMS7003;30602;51.060;17.226;2023-04-22T00:34:54;35;34;26
44871;PMS7003;30602;51.060;17.226;2023-04-22T00:38:42;42;37;24
44871;PMS7003;30602;51.060;17.226;2023-04-22T00:43:05;32;30;22
44871;PMS7003;30602;51.060;17.226;2023-04-22T00:47:22;35;32;24
44871;PMS7003;30602;51.060;17.226;2023-04-22T00:50:48;42;34;23
44871;PMS7003;30602;51.060;17.226;2023-04-22T00:54:45;40;36;22
44871;PMS7003;30602;51.060;17.226;2023-04-22T00:58:47;45;38;26
44871;PMS7003;30602;51.060;17.226;2023-04-22T01:02:43;45;39;26
44871;PMS7003;30602;51.060;17.226;2023-04-22T01:06:08;54;41;25
44871;PMS7003;30602;51.060;17.226;2023-04-22T01:09:30;42;36;25
44871;PMS7003;30602;51.060;17.226;2023-04-22T01:13:01;43;37;23
44871;PMS7003;30602;51.060;17.226;2023-04-22T01:16:54;41;35;23
44871;PMS7003;30602;51.060;17.226;2023-04-22T01:21:01;42;35;23
44871;PMS7003;30602;51.060;17.226;2023-04-22T01:24:46;45;38;27
44871;PMS7003;30602;51.060;17.226;2023-04-22T01:28:57;49;39;26
44871;PMS7003;30602;51.060;17.226;2023-04-22T01:32:45;43;39;23
44871;PMS7003;30602;51.060;17.226;2023-04-22T01:36:08;44;39;26
44871;PMS7003;30602;51.060;17.226;2023-04-22T01:40:02;42;39;25
44871;PMS7003;30602;51.060;17.226;2023-04-22T01:44:08;43;35;25
44871;PMS7003;30602;51.060;17.226;2023-04-22T01:47:40;37;33;23
44871;PMS7003;30602;51.060;17.226;2023-04-22T01:51:26;40;34;24
44871;PMS7003;30602;51.060;17.226;2023-04-22T01:55:24;44;33;22
44871;PMS7003;30602;51.060;17.226;2023-04-22T01:58:59;42;37;24
44871;PMS7003;30602;51.060;17.226;2023-04-22T02:02:45;41;34;23
44871;PMS7003;30602;51.060;17.226;2023-04-22T02:06:21;40;33;22
44871;PMS7003;30602;51.060;17.226;2023-04-22T02:10:02;37;33;22
44871;PMS7003;30602;51.060;17.226;2023-04-22T02:13:47;35;30;21
44871;PMS7003;30602;51.060;17.226;2023-04-22T02:17:11;33;32;23
44871;PMS7003;30602;51.060;17.226;2023-04-22T02:20:37;39;37;23
44871;PMS7003;30602;51.060;17.226;2023-04-22T02:24:44;34;30;21
44871;PMS7003;30602;51.060;17.226;2023-04-22T02:28:28;35;31;20
44871;PMS7003;30602;51.060;17.226;2023-04-22T02:32:24;36;30;21
44871;PMS7003;30602;51.060;17.226;2023-04-22T02:36:05;34;28;20
44871;PMS7003;30602;51.060;17.226;2023-04-22T02:39:46;40;34;21
44871;PMS7003;30602;51.060;17.226;2023-04-22T02:43:23;43;38;24
44871;PMS7003;30602;51.060;17.226;2023-04-22T02:46:44;44;37;25
44871;PMS7003;30602;51.060;17.226;2023-04-22T02:50:14;35;33;25
44871;PMS7003;30602;51.060;17.226;2023-04-22T02:53:33;37;32;22
44871;PMS7003;30602;51.060;17.226;2023-04-22T02:56:56;47;39;25
44871;PMS7003;30602;51.060;17.226;2023-04-22T03:00:49;40;36;23
44871;PMS7003;30602;51.060;17.226;2023-04-22T03:04:38;36;31;22
44871;PMS7003;30602;51.060;17.226;2023-04-22T03:08:17;42;36;23
44871;PMS7003;30602;51.060;17.226;2023-04-22T03:11:47;43;33;22
44871;PMS7003;30602;51.060;17.226;2023-04-22T03:15:38;35;31;22
44871;PMS7003;30602;51.060;17.226;2023-04-22T03:19:12;43;35;22
44871;PMS7003;30602;51.060;17.226;2023-04-22T03:22:34;38;34;22
44871;PMS7003;30602;51.060;17.226;2023-04-22T03:25:58;35;31;22
44871;PMS7003;30602;51.060;17.226;2023-04-22T03:30:03;34;27;19
44871;PMS7003;30602;51.060;17.226;2023-04-22T03:33:50;45;36;24
44871;PMS7003;30602;51.060;17.226;2023-04-22T03:37:30;41;34;24
44871;PMS7003;30602;51.060;17.226;2023-04-22T03:41:22;50;41;25
44871;PMS7003;30602;51.060;17.226;2023-04-22T03:45:06;40;33;24
44871;PMS7003;30602;51.060;17.226;2023-04-22T03:48:28;37;34;24
44871;PMS7003;30602;51.060;17.226;2023-04-22T03:52:22;31;26;19
44871;PMS7003;30602;51.060;17.226;2023-04-22T03:56:03;36;33;23
44871;PMS7003;30602;51.060;17.226;2023-04-22T03:59:55;39;34;25
44871;PMS7003;30602;51.060;17.226;2023-04-22T04:03:34;43;39;26
44871;PMS7003;30602;51.060;17.226;2023-04-22T04:07:02;42;39;25
44871;PMS7003;30602;51.060;17.226;2023-04-22T04:10:51;47;40;26
44871;PMS7003;30602;51.060;17.226;2023-04-22T04:14:37;44;39;26
44871;PMS7003;30602;51.060;17.226;2023-04-22T04:18:10;43;38;22
44871;PMS7003;30602;51.060;17.226;2023-04-22T04:21:59;44;36;24
44871;PMS7003;30602;51.060;17.226;2023-04-22T04:25:55;35;34;23
44871;PMS7003;30602;51.060;17.226;2023-04-22T04:29:29;43;34;24
44871;PMS7003;30602;51.060;17.226;2023-04-22T04:33:22;43;39;23
44871;PMS7003;30602;51.060;17.226;2023-04-22T04:37:20;41;37;24
44871;PMS7003;30602;51.060;17.226;2023-04-22T04:40:40;37;35;22
44871;PMS7003;30602;51.060;17.226;2023-04-22T04:44:41;50;41;26
44871;PMS7003;30602;51.060;17.226;2023-04-22T04:48:40;40;33;23
44871;PMS7003;30602;51.060;17.226;2023-04-22T04:52:26;44;37;23
44871;PMS7003;30602;51.060;17.226;2023-04-22T04:56:26;43;39;25
44871;PMS7003;30602;51.060;17.226;2023-04-22T05:00:19;40;35;23
44871;PMS7003;30602;51.060;17.226;2023-04-22T05:04:18;37;34;24
44871;PMS7003;30602;51.060;17.226;2023-04-22T05:07:43;41;36;24
44871;PMS7003;30602;51.060;17.226;2023-04-22T05:11:17;44;38;25
44871;PMS7003;30602;51.060;17.226;2023-04-22T05:15:17;50;43;25
44871;PMS7003;30602;51.060;17.226;2023-04-22T05:18:36;38;33;23
44871;PMS7003;30602;51.060;17.226;2023-04-22T05:22:38;44;38;26
44871;PMS7003;30602;51.060;17.226;2023-04-22T05:26:33;39;34;25
44871;PMS7003;30602;51.060;17.226;2023-04-22T05:30:14;38;35;24
44871;PMS7003;30602;51.060;17.226;2023-04-22T05:34:17;45;38;24
44871;PMS7003;30602;51.060;17.226;2023-04-22T05:38:56;42;35;24
44871;PMS7003;30602;51.060;17.226;2023-04-22T05:42:38;44;37;23
44871;PMS7003;30602;51.060;17.226;2023-04-22T05:46:08;50;40;26
44871;PMS7003;30602;51.060;17.226;2023-04-22T05:50:13;43;38;26
44871;PMS7003;30602;51.060;17.226;2023-04-22T05:53:41;37;35;24
44871;PMS7003;30602;51.060;17.226;2023-04-22T05:57:05;39;35;25
44871;PMS7003;30602;51.060;17.226;2023-04-22T06:00:41;39;36;24
44871;PMS7003;30602;51.060;17.226;2023-04-22T06:04:01;38;33;24
44871;PMS7003;30602;51.060;17.226;2023-04-22T06:07:46;42;35;24
44871;PMS7003;30602;51.060;17.226;2023-04-22T06:11:26;39;35;24
44871;PMS7003;30602;51.060;17.226;2023-04-22T06:14:50;38;35;23
44871;PMS7003;30602;51.060;17.226;2023-04-22T06:18:17;33;33;23
44871;PMS7003;30602;51.060;17.226;2023-04-22T06:21:41;36;32;23
44871;PMS7003;30602;51.060;17.226;2023-04-22T06:25:07;40;34;23
44871;PMS7003;30602;51.060;17.226;2023-04-22T06:28:50;37;33;23
44871;PMS7003;30602;51.060;17.226;2023-04-22T06:32:13;40;36;26
44871;PMS7003;30602;51.060;17.226;2023-04-22T06:35:39;40;36;24
44871;PMS7003;30602;51.060;17.226;2023-04-22T06:39:06;44;39;27
44871;PMS7003;30602;51.060;17.226;2023-04-22T06:43:28;41;37;25
44871;PMS7003;30602;51.060;17.226;2023-04-22T06:46:52;40;33;23
44871;PMS7003;30602;51.060;17.226;2023-04-22T06:50:33;35;29;21
44871;PMS7003;30602;51.060;17.226;2023-04-22T06:54:00;23;23;18
44871;PMS7003;30602;51.060;17.226;2023-04-22T06:57:42;31;30;20
44871;PMS7003;30602;51.060;17.226;2023-04-22T07:01:51;36;28;21
44871;PMS7003;30602;51.060;17.226;2023-04-22T07:05:33;29;25;19
44871;PMS7003;30602;51.060;17.226;2023-04-22T07:09:19;30;25;18
44871;PMS7003;30602;51.060;17.226;2023-04-22T07:13:15;31;28;19
44871;PMS7003;30602;51.060;17.226;2023-04-22T07:17:08;36;32;22
44871;PMS7003;30602;51.060;17.226;2023-04-22T07:20:30;30;27;21
44871;PMS7003;30602;51.060;17.226;2023-04-22T07:23:52;33;29;19
44871;PMS7003;30602;51.060;17.226;2023-04-22T07:27:43;35;32;21
44871;PMS7003;30602;51.060;17.226;2023-04-22T07:31:16;33;28;22
44871;PMS7003;30602;51.060;17.226;2023-04-22T07:35:43;27;24;17
44871;PMS7003;30602;51.060;17.226;2023-04-22T07:39:36;34;31;21
44871;PMS7003;30602;51.060;17.226;2023-04-22T07:43:32;36;31;21
44871;PMS7003;30602;51.060;17.226;2023-04-22T07:47:24;32;30;21
44871;PMS7003;30602;51.060;17.226;2023-04-22T07:51:12;42;33;22
44871;PMS7003;30602;51.060;17.226;2023-04-22T07:54:35;33;31;23
44871;PMS7003;30602;51.060;17.226;2023-04-22T07:58:19;35;31;20
44871;PMS7003;30602;51.060;17.226;2023-04-22T08:01:56;38;32;22
44871;PMS7003;30602;51.060;17.226;2023-04-22T08:05:44;34;31;21
44871;PMS7003;30602;51.060;17.226;2023-04-22T08:09:54;37;30;21
44871;PMS7003;30602;51.060;17.226;2023-04-22T08:13:26;33;28;20
44871;PMS7003;30602;51.060;17.226;2023-04-22T08:17:20;34;28;20
44871;PMS7003;30602;51.060;17.226;2023-04-22T08:21:02;25;24;20
44871;PMS7003;30602;51.060;17.226;2023-04-22T08:24:31;33;29;19
44871;PMS7003;30602;51.060;17.226;2023-04-22T08:28:20;30;27;20
44871;PMS7003;30602;51.060;17.226;2023-04-22T08:32:05;27;24;19
44871;PMS7003;30602;51.060;17.226;2023-04-22T08:36:01;30;25;19
44871;PMS7003;30602;51.060;17.226;2023-04-22T08:40:39;30;27;18
44871;PMS7003;30602;51.060;17.226;2023-04-22T08:44:09;25;22;16
44871;PMS7003;30602;51.060;17.226;2023-04-22T08:47:55;19;19;15
44871;PMS7003;30602;51.060;17.226;2023-04-22T08:51:36;21;19;15
44871;PMS7003;30602;51.060;17.226;2023-04-22T08:55:31;22;21;16
44871;PMS7003;30602;51.060;17.226;2023-04-22T08:59:17;25;22;17
44871;PMS7003;30602;51.060;17.226;2023-04-22T09:03:24;23;21;19
44871;PMS7003;30602;51.060;17.226;2023-04-22T09:06:57;27;23;17
44871;PMS7003;30602;51.060;17.226;2023-04-22T09:11:04;20;19;15
44871;PMS7003;30602;51.060;17.226;2023-04-22T09:15:21;21;19;15
44871;PMS7003;30602;51.060;17.226;2023-04-22T09:19:22;19;16;13
44871;PMS7003;30602;51.060;17.226;2023-04-22T09:23:00;20;18;12
44871;PMS7003;30602;51.060;17.226;2023-04-22T09:26:40;21;18;16
44871;PMS7003;30602;51.060;17.226;2023-04-22T09:30:27;18;16;13
44871;PMS7003;30602;51.060;17.226;2023-04-22T09:34:17;15;14;10
44871;PMS7003;30602;51.060;17.226;2023-04-22T09:38:04;19;15;12
44871;PMS7003;30602;51.060;17.226;2023-04-22T09:41:45;20;18;13
44871;PMS7003;30602;51.060;17.226;2023-04-22T09:45:40;20;16;12
44871;PMS7003;30602;51.060;17.226;2023-04-22T09:49:21;17;17;13
44871;PMS7003;30602;51.060;17.226;2023-04-22T09:52:45;17;15;12
44871;PMS7003;30602;51.060;17.226;2023-04-22T09:56:15;12;12;10
44871;PMS7003;30602;51.060;17.226;2023-04-22T09:59:57;13;12;8
44871;PMS7003;30602;51.060;17.226;2023-04-22T10:04:29;9;8;7
44871;PMS7003;30602;51.060;17.226;2023-04-22T10:08:11;10;9;8
44871;PMS7003;30602;51.060;17.226;2023-04-22T10:11:32;15;13;11
44871;PMS7003;30602;51.060;17.226;2023-04-22T10:15:46;15;12;10
44871;PMS7003;30602;51.060;17.226;2023-04-22T10:19:09;13;12;10
44871;PMS7003;30602;51.060;17.226;2023-04-22T10:22:37;16;16;11
44871;PMS7003;30602;51.060;17.226;2023-04-22T10:26:39;18;15;12
44871;PMS7003;30602;51.060;17.226;2023-04-22T10:30:45;14;14;11
44871;PMS7003;30602;51.060;17.226;2023-04-22T10:34:22;14;10;8
44871;PMS7003;30602;51.060;17.226;2023-04-22T10:37:45;11;10;9
44871;PMS7003;30602;51.060;17.226;2023-04-22T10:41:28;13;13;10
44871;PMS7003;30602;51.060;17.226;2023-04-22T10:45:12;14;11;10
44871;PMS7003;30602;51.060;17.226;2023-04-22T10:49:21;15;12;10
44871;PMS7003;30602;51.060;17.226;2023-04-22T10:52:57;13;11;9
44871;PMS7003;30602;51.060;17.226;2023-04-22T10:56:26;15;14;12
44871;PMS7003;30602;51.060;17.226;2023-04-22T11:04:20;13;12;10
44871;PMS7003;30602;51.060;17.226;2023-04-22T11:11:37;16;14;11
44871;PMS7003;30602;51.060;17.226;2023-04-22T11:16:46;14;12;9
44871;PMS7003;30602;51.060;17.226;2023-04-22T11:20:30;14;11;9
44871;PMS7003;30602;51.060;17.226;2023-04-22T11:23:52;10;10;9
44871;PMS7003;30602;51.060;17.226;2023-04-22T11:27:17;11;10;9
44871;PMS7003;30602;51.060;17.226;2023-04-22T11:31:29;12;10;8
44871;PMS7003;30602;51.060;17.226;2023-04-22T11:34:51;10;10;8
44871;PMS7003;30602;51.060;17.226;2023-04-22T11:38:55;11;11;9
44871;PMS7003;30602;51.060;17.226;2023-04-22T11:42:41;10;10;8
44871;PMS7003;30602;51.060;17.226;2023-04-22T11:46:13;21;18;14
44871;PMS7003;30602;51.060;17.226;2023-04-22T11:49:33;15;14;12
44871;PMS7003;30602;51.060;17.226;2023-04-22T11:57:37;14;14;13
44871;PMS7003;30602;51.060;17.226;2023-04-22T12:01:00;15;14;12
44871;PMS7003;30602;51.060;17.226;2023-04-22T12:05:15;13;12;10
44871;PMS7003;30602;51.060;17.226;2023-04-22T12:09:00;11;11;8
44871;PMS7003;30602;51.060;17.226;2023-04-22T12:17:15;11;11;9
44871;PMS7003;30602;51.060;17.226;2023-04-22T12:21:39;14;12;9
44871;PMS7003;30602;51.060;17.226;2023-04-22T12:32:44;16;9;8
44871;PMS7003;30602;51.060;17.226;2023-04-22T12:37:05;9;9;7
44871;PMS7003;30602;51.060;17.226;2023-04-22T12:40:48;9;8;7
44871;PMS7003;30602;51.060;17.226;2023-04-22T12:44:27;11;10;9
44871;PMS7003;30602;51.060;17.226;2023-04-22T12:47:50;12;10;8
44871;PMS7003;30602;51.060;17.226;2023-04-22T12:51:25;12;12;10
44871;PMS7003;30602;51.060;17.226;2023-04-22T12:54:44;13;12;10
44871;PMS7003;30602;51.060;17.226;2023-04-22T12:58:15;11;9;8
44871;PMS7003;30602;51.060;17.226;2023-04-22T13:01:57;12;10;9
44871;PMS7003;30602;51.060;17.226;2023-04-22T13:05:47;13;8;6
44871;PMS7003;30602;51.060;17.226;2023-04-22T13:09:45;15;13;11
44871;PMS7003;30602;51.060;17.226;2023-04-22T13:13:10;12;11;10
44871;PMS7003;30602;51.060;17.226;2023-04-22T13:16:34;9;8;7
44871;PMS7003;30602;51.060;17.226;2023-04-22T13:20:17;9;7;5
44871;PMS7003;30602;51.060;17.226;2023-04-22T13:23:45;10;10;8
44871;PMS7003;30602;51.060;17.226;2023-04-22T13:27:20;9;7;6
44871;PMS7003;30602;51.060;17.226;2023-04-22T13:30:54;12;12;10
44871;PMS7003;30602;51.060;17.226;2023-04-22T13:34:43;10;10;8
44871;PMS7003;30602;51.060;17.226;2023-04-22T14:38:48;9;9;8
44871;PMS7003;30602;51.060;17.226;2023-04-22T14:42:23;10;10;8
44871;PMS7003;30602;51.060;17.226;2023-04-22T14:46:17;9;9;7
44871;PMS7003;30602;51.060;17.226;2023-04-22T14:50:02;13;11;9
44871;PMS7003;30602;51.060;17.226;2023-04-22T14:53:20;13;10;9
44871;PMS7003;30602;51.060;17.226;2023-04-22T14:57:12;11;9;8
44871;PMS7003;30602;51.060;17.226;2023-04-22T15:00:32;12;9;7
44871;PMS7003;30602;51.060;17.226;2023-04-22T15:04:32;17;11;9
44871;PMS7003;30602;51.060;17.226;2023-04-22T15:07:53;12;11;8
44871;PMS7003;30602;51.060;17.226;2023-04-22T15:11:29;20;13;10
44871;PMS7003;30602;51.060;17.226;2023-04-22T15:15:25;11;10;8
44871;PMS7003;30602;51.060;17.226;2023-04-22T15:19:10;13;12;9
44871;PMS7003;30602;51.060;17.226;2023-04-22T15:23:03;15;13;12
44871;PMS7003;30602;51.060;17.226;2023-04-22T15:26:23;15;14;12
44871;PMS7003;30602;51.060;17.226;2023-04-22T15:30:27;12;11;9
44871;PMS7003;30602;51.060;17.226;2023-04-22T15:34:37;29;26;19
44871;PMS7003;30602;51.060;17.226;2023-04-22T15:38:06;39;31;20
44871;PMS7003;30602;51.060;17.226;2023-04-22T15:41:49;14;12;10
44871;PMS7003;30602;51.060;17.226;2023-04-22T15:45:52;25;21;15
44871;PMS7003;30602;51.060;17.226;2023-04-22T15:49:48;40;31;21
44871;PMS7003;30602;51.060;17.226;2023-04-22T15:57:29;188;165;91
44871;PMS7003;30602;51.060;17.226;2023-04-22T16:01:27;25;22;17
44871;PMS7003;30602;51.060;17.226;2023-04-22T16:04:46;14;13;10
44871;PMS7003;30602;51.060;17.226;2023-04-22T16:08:09;21;19;15
44871;PMS7003;30602;51.060;17.226;2023-04-22T16:12:08;21;18;13
44871;PMS7003;30602;51.060;17.226;2023-04-22T16:15:52;19;14;12
44871;PMS7003;30602;51.060;17.226;2023-04-22T16:19:15;16;13;11
44871;PMS7003;30602;51.060;17.226;2023-04-22T16:22:54;18;15;13
44871;PMS7003;30602;51.060;17.226;2023-04-22T16:26:30;14;14;12
44871;PMS7003;30602;51.060;17.226;2023-04-22T16:29:56;18;17;12
44871;PMS7003;30602;51.060;17.226;2023-04-22T16:33:28;79;67;46
44871;PMS7003;30602;51.060;17.226;2023-04-22T16:36:49;25;22;16
44871;PMS7003;30602;51.060;17.226;2023-04-22T16:40:16;13;12;10
44871;PMS7003;30602;51.060;17.226;2023-04-22T16:43:49;12;12;10
44871;PMS7003;30602;51.060;17.226;2023-04-22T16:47:08;15;13;10
44871;PMS7003;30602;51.060;17.226;2023-04-22T16:50:41;15;12;10
44871;PMS7003;30602;51.060;17.226;2023-04-22T16:54:02;13;12;10
44871;PMS7003;30602;51.060;17.226;2023-04-22T16:58:10;12;12;10
44871;PMS7003;30602;51.060;17.226;2023-04-22T17:01:38;15;10;8
44871;PMS7003;30602;51.060;17.226;2023-04-22T17:05:04;11;10;8
44871;PMS7003;30602;51.060;17.226;2023-04-22T17:08:33;15;12;9
44871;PMS7003;30602;51.060;17.226;2023-04-22T17:12:17;11;10;9
44871;PMS7003;30602;51.060;17.226;2023-04-22T17:15:36;11;11;9
44871;PMS7003;30602;51.060;17.226;2023-04-22T17:19:20;13;11;9
44871;PMS7003;30602;51.060;17.226;2023-04-22T17:23:46;15;11;10
44871;PMS7003;30602;51.060;17.226;2023-04-22T17:27:06;11;9;8
44871;PMS7003;30602;51.060;17.226;2023-04-22T17:31:02;10;9;8
44871;PMS7003;30602;51.060;17.226;2023-04-22T17:35:01;12;10;9
44871;PMS7003;30602;51.060;17.226;2023-04-22T17:38:33;14;11;9
44871;PMS7003;30602;51.060;17.226;2023-04-22T17:41:56;11;11;9
44871;PMS7003;30602;51.060;17.226;2023-04-22T17:49:45;19;16;14
44871;PMS7003;30602;51.060;17.226;2023-04-22T17:53:15;17;17;14
44871;PMS7003;30602;51.060;17.226;2023-04-22T17:57:43;19;17;14
44871;PMS7003;30602;51.060;17.226;2023-04-22T18:01:07;25;20;14
44871;PMS7003;30602;51.060;17.226;2023-04-22T18:06:46;30;27;19
44871;PMS7003;30602;51.060;17.226;2023-04-22T18:10:35;32;29;20
44871;PMS7003;30602;51.060;17.226;2023-04-22T18:14:24;31;28;20
44871;PMS7003;30602;51.060;17.226;2023-04-22T18:20:04;30;25;19
44871;PMS7003;30602;51.060;17.226;2023-04-22T18:23:38;32;27;19
44871;PMS7003;30602;51.060;17.226;2023-04-22T18:31:59;29;23;18
44871;PMS7003;30602;51.060;17.226;2023-04-22T18:36:30;32;27;20
44871;PMS7003;30602;51.060;17.226;2023-04-22T18:39:56;28;27;19
44871;PMS7003;30602;51.060;17.226;2023-04-22T18:43:50;28;26;18
44871;PMS7003;30602;51.060;17.226;2023-04-22T18:47:26;29;24;18
44871;PMS7003;30602;51.060;17.226;2023-04-22T18:52:40;27;22;18
44871;PMS7003;30602;51.060;17.226;2023-04-22T18:56:13;30;27;19
44871;PMS7003;30602;51.060;17.226;2023-04-22T19:05:24;28;26;19
44871;PMS7003;30602;51.060;17.226;2023-04-22T19:08:56;31;28;20
44871;PMS7003;30602;51.060;17.226;2023-04-22T19:13:07;37;33;21
44871;PMS7003;30602;51.060;17.226;2023-04-22T19:16:54;28;27;20
44871;PMS7003;30602;51.060;17.226;2023-04-22T19:27:32;37;32;21
44871;PMS7003;30602;51.060;17.226;2023-04-22T19:31:01;32;30;21
44871;PMS7003;30602;51.060;17.226;2023-04-22T19:34:54;38;32;23
44871;PMS7003;30602;51.060;17.226;2023-04-22T19:38:48;33;29;21
44871;PMS7003;30602;51.060;17.226;2023-04-22T19:42:10;31;29;21
44871;PMS7003;30602;51.060;17.226;2023-04-22T19:46:03;38;35;24
44871;PMS7003;30602;51.060;17.226;2023-04-22T19:49:31;42;36;25
44871;PMS7003;30602;51.060;17.226;2023-04-22T19:53:32;43;36;26
44871;PMS7003;30602;51.060;17.226;2023-04-22T19:57:53;45;36;26
44871;PMS7003;30602;51.060;17.226;2023-04-22T20:01:53;41;37;25
44871;PMS7003;30602;51.060;17.226;2023-04-22T20:05:16;42;36;25
44871;PMS7003;30602;51.060;17.226;2023-04-22T20:08:44;43;36;25
44871;PMS7003;30602;51.060;17.226;2023-04-22T20:12:08;35;34;25
44871;PMS7003;30602;51.060;17.226;2023-04-22T20:15:32;44;36;25
44871;PMS7003;30602;51.060;17.226;2023-04-22T20:19:37;40;36;26
44871;PMS7003;30602;51.060;17.226;2023-04-22T20:23:22;41;37;26
44871;PMS7003;30602;51.060;17.226;2023-04-22T20:27:11;48;39;26
44871;PMS7003;30602;51.060;17.226;2023-04-22T20:30:54;41;37;25
44871;PMS7003;30602;51.060;17.226;2023-04-22T20:34:35;43;38;26
44871;PMS7003;30602;51.060;17.226;2023-04-22T20:38:19;49;40;27
44871;PMS7003;30602;51.060;17.226;2023-04-22T20:42:08;52;43;28
44871;PMS7003;30602;51.060;17.226;2023-04-22T20:45:35;54;42;28
44871;PMS7003;30602;51.060;17.226;2023-04-22T20:48:59;49;39;26
44871;PMS7003;30602;51.060;17.226;2023-04-22T20:52:52;55;46;30
44871;PMS7003;30602;51.060;17.226;2023-04-22T20:57:23;60;47;31
44871;PMS7003;30602;51.060;17.226;2023-04-22T21:01:10;63;49;32
44871;PMS7003;30602;51.060;17.226;2023-04-22T21:05:33;59;49;31
44871;PMS7003;30602;51.060;17.226;2023-04-22T21:09:06;54;46;31
44871;PMS7003;30602;51.060;17.226;2023-04-22T21:13:26;59;48;32
44871;PMS7003;30602;51.060;17.226;2023-04-22T21:17:21;60;50;32
44871;PMS7003;30602;51.060;17.226;2023-04-22T21:20:55;64;49;33
44871;PMS7003;30602;51.060;17.226;2023-04-22T21:24:18;59;48;31
44871;PMS7003;30602;51.060;17.226;2023-04-22T21:27:49;59;48;31
44871;PMS7003;30602;51.060;17.226;2023-04-22T21:31:16;55;45;31
44871;PMS7003;30602;51.060;17.226;2023-04-22T21:34:37;53;44;30
44871;PMS7003;30602;51.060;17.226;2023-04-22T21:38:22;60;48;32
44871;PMS7003;30602;51.060;17.226;2023-04-22T21:41:42;58;47;32
44871;PMS7003;30602;51.060;17.226;2023-04-22T21:45:31;61;48;31
44871;PMS7003;30602;51.060;17.226;2023-04-22T21:48:52;53;43;31
44871;PMS7003;30602;51.060;17.226;2023-04-22T21:52:17;58;47;30
44871;PMS7003;30602;51.060;17.226;2023-04-22T21:56:07;56;45;30
44871;PMS7003;30602;51.060;17.226;2023-04-22T21:59:33;59;47;31
44871;PMS7003;30602;51.060;17.226;2023-04-22T22:03:41;59;48;33
44871;PMS7003;30602;51.060;17.226;2023-04-22T22:07:27;60;49;32
44871;PMS7003;30602;51.060;17.226;2023-04-22T22:11:21;63;51;32
44871;PMS7003;30602;51.060;17.226;2023-04-22T22:15:06;65;51;33
44871;PMS7003;30602;51.060;17.226;2023-04-22T22:18:59;59;47;31
44871;PMS7003;30602;51.060;17.226;2023-04-22T22:23:05;54;44;30
44871;PMS7003;30602;51.060;17.226;2023-04-22T22:26:43;61;50;33
44871;PMS7003;30602;51.060;17.226;2023-04-22T22:30:46;69;53;34
44871;PMS7003;30602;51.060;17.226;2023-04-22T22:34:37;64;50;32
44871;PMS7003;30602;51.060;17.226;2023-04-22T22:38:46;60;49;31
44871;PMS7003;30602;51.060;17.226;2023-04-22T22:42:53;59;48;31
44871;PMS7003;30602;51.060;17.226;2023-04-22T22:46:59;57;46;30
44871;PMS7003;30602;51.060;17.226;2023-04-22T22:50:26;54;44;28
44871;PMS7003;30602;51.060;17.226;2023-04-22T22:54:18;49;42;28
44871;PMS7003;30602;51.060;17.226;2023-04-22T22:58:14;57;47;29
44871;PMS7003;30602;51.060;17.226;2023-04-22T23:02:07;54;46;32
44871;PMS7003;30602;51.060;17.226;2023-04-22T23:05:35;58;48;31
44871;PMS7003;30602;51.060;17.226;2023-04-22T23:09:27;63;51;32
44871;PMS7003;30602;51.060;17.226;2023-04-22T23:12:54;62;48;32
44871;PMS7003;30602;51.060;17.226;2023-04-22T23:16:42;69;55;35
44871;PMS7003;30602;51.060;17.226;2023-04-22T23:20:06;66;53;35
44871;PMS7003;30602;51.060;17.226;2023-04-22T23:24:09;70;54;35
44871;PMS7003;30602;51.060;17.226;2023-04-22T23:31:33;73;58;37
44871;PMS7003;30602;51.060;17.226;2023-04-22T23:34:59;66;54;35
44871;PMS7003;30602;51.060;17.226;2023-04-22T23:39:11;63;51;31
44871;PMS7003;30602;51.060;17.226;2023-04-22T23:42:52;65;52;33
44871;PMS7003;30602;51.060;17.226;2023-04-22T23:46:49;72;56;37
44871;PMS7003;30602;51.060;17.226;2023-04-22T23:50:15;65;54;34
44871;PMS7003;30602;51.060;17.226;2023-04-22T23:57:50;72;55;35
